Time;durP1;ratioP1;P1;durP2;ratioP2;P2;SDS_P1;SDS_P2;PMS_P1;PMS_P2;Temp;Humidity;BMP_temperature;BMP_pressure;BME280_temperature;BME280_humidity;BME280_pressure;Samples;Min_cycle;Max_cycle;Signal;HPM_P1;HPM_P2
2022/01/05 00:00:09;;;;;;;2.53;1.15;;;5.20;99.90;;;;;;5103711;28;20031;-79
2022/01/05 00:02:35;;;;;;;1.92;1.13;;;5.20;99.90;;;;;;5104472;28;20311;-78
2022/01/05 00:05:04;;;;;;;2.00;0.90;;;5.20;99.90;;;;;;5103770;28;20069;-78
2022/01/05 00:07:30;;;;;;;2.13;0.90;;;5.20;99.90;;;;;;5086335;28;20035;-79
2022/01/05 00:09:56;;;;;;;1.70;0.80;;;5.20;99.90;;;;;;5104157;28;20246;-77
2022/01/05 00:12:22;;;;;;;1.80;0.70;;;5.30;99.90;;;;;;5102022;28;20036;-77
2022/01/05 00:14:47;;;;;;;1.45;0.60;;;5.30;99.90;;;;;;5100783;28;20055;-79
2022/01/05 00:17:13;;;;;;;1.92;0.60;;;5.30;99.90;;;;;;5085271;28;20254;-78
2022/01/05 00:19:39;;;;;;;1.77;0.50;;;5.30;99.90;;;;;;5086114;28;20081;-78
2022/01/05 00:22:06;;;;;;;2.05;0.50;;;5.30;99.90;;;;;;5103640;28;20020;-78
2022/01/05 00:24:33;;;;;;;1.17;0.60;;;5.30;99.90;;;;;;5104073;28;20042;-79
2022/01/05 00:26:59;;;;;;;1.25;0.57;;;5.30;99.90;;;;;;5086217;28;20032;-78
2022/01/05 00:29:24;;;;;;;1.60;0.47;;;5.30;99.90;;;;;;5103366;28;20042;-78
2022/01/05 00:31:50;;;;;;;1.13;0.30;;;5.30;99.90;;;;;;5085583;28;20103;-77
2022/01/05 00:34:16;;;;;;;1.17;0.55;;;5.40;99.90;;;;;;5098508;28;20020;-77
2022/01/05 00:36:42;;;;;;;1.05;0.25;;;5.40;99.90;;;;;;5085934;28;20043;-79
2022/01/05 00:39:08;;;;;;;0.88;0.40;;;5.40;99.90;;;;;;5085467;28;20073;-77
2022/01/05 00:41:33;;;;;;;1.05;0.40;;;5.30;99.90;;;;;;5103479;28;20333;-77
2022/01/05 00:43:59;;;;;;;1.33;0.52;;;5.30;99.90;;;;;;5103523;28;20030;-77
2022/01/05 00:46:25;;;;;;;2.15;0.40;;;5.30;99.90;;;;;;5067690;28;20040;-78
2022/01/05 00:48:51;;;;;;;0.77;0.30;;;5.30;99.90;;;;;;5102457;28;20036;-78
2022/01/05 00:51:17;;;;;;;0.82;0.28;;;5.30;99.90;;;;;;5085143;28;20282;-79
2022/01/05 00:53:43;;;;;;;0.75;0.20;;;5.30;99.90;;;;;;5067098;28;20337;-80
2022/01/05 00:56:08;;;;;;;1.55;0.25;;;5.30;99.90;;;;;;5098921;28;20027;-78
2022/01/05 00:59:10;;;;;;;1.15;0.30;;;5.30;99.90;;;;;;5103707;28;20062;-79
2022/01/05 01:01:36;;;;;;;0.88;0.25;;;5.20;99.90;;;;;;5104244;28;20103;-78
2022/01/05 01:04:04;;;;;;;0.88;0.20;;;5.30;99.90;;;;;;5063277;28;20032;-79
2022/01/05 01:06:50;;;;;;;;;;;;;;;;;;;;;
2022/01/05 01:09:31;;;;;;;0.47;0.20;;;5.30;99.90;;;;;;5080880;28;20393;-79
2022/01/05 01:11:57;;;;;;;0.40;0.20;;;5.20;99.90;;;;;;5081074;28;20020;-78
2022/01/05 01:14:23;;;;;;;0.80;0.40;;;5.20;99.90;;;;;;5080853;28;20308;-78
2022/01/05 01:16:48;;;;;;;0.68;0.15;;;5.30;99.90;;;;;;5098344;28;20035;-79
2022/01/05 01:19:14;;;;;;;0.52;0.20;;;5.20;99.90;;;;;;5101372;28;20044;-79
2022/01/05 01:21:40;;;;;;;0.80;0.30;;;5.30;99.90;;;;;;5103233;28;20036;-79
2022/01/05 01:24:06;;;;;;;0.35;0.10;;;5.30;99.90;;;;;;5102494;28;20015;-78
2022/01/05 01:26:33;;;;;;;1.67;0.20;;;5.30;99.90;;;;;;5085095;28;20352;-79
2022/01/05 01:29:00;;;;;;;1.58;0.20;;;5.30;99.90;;;;;;5084832;28;20032;-78
2022/01/05 01:31:26;;;;;;;0.88;0.20;;;5.40;99.90;;;;;;5102239;28;20378;-78
2022/01/05 01:33:52;;;;;;;0.52;0.30;;;5.50;99.90;;;;;;5103021;28;20020;-78
2022/01/05 01:36:19;;;;;;;0.10;0.00;;;5.50;99.90;;;;;;5096762;28;20028;-78
2022/01/05 01:38:45;;;;;;;0.77;0.10;;;5.50;99.90;;;;;;5102852;28;20042;-78
2022/01/05 01:41:11;;;;;;;0.20;0.10;;;5.50;99.90;;;;;;5084409;28;20028;-78
2022/01/05 01:43:38;;;;;;;1.52;0.60;;;5.50;99.90;;;;;;5103695;28;20311;-78
2022/01/05 01:46:05;;;;;;;0.43;0.20;;;5.50;99.90;;;;;;5084857;28;20047;-78
2022/01/05 01:48:32;;;;;;;1.60;0.13;;;5.50;99.90;;;;;;5067916;28;20016;-78
2022/01/05 01:50:58;;;;;;;0.60;0.20;;;5.50;99.90;;;;;;5102470;28;20450;-78
2022/01/05 01:53:24;;;;;;;0.40;0.10;;;5.50;99.90;;;;;;5101933;28;20043;-78
2022/01/05 01:55:50;;;;;;;0.60;0.13;;;5.60;99.90;;;;;;5102695;28;20031;-78
2022/01/05 01:58:19;;;;;;;0.43;0.10;;;5.50;99.90;;;;;;5064265;28;20036;-79
2022/01/05 02:00:45;;;;;;;0.30;0.10;;;5.60;99.90;;;;;;5082383;28;20021;-78
2022/01/05 02:03:14;;;;;;;0.80;0.35;;;5.60;99.90;;;;;;5081742;28;20042;-80
2022/01/05 02:05:41;;;;;;;1.20;0.30;;;5.70;99.90;;;;;;5082480;28;20055;-79
2022/01/05 02:08:07;;;;;;;0.35;0.10;;;5.60;99.90;;;;;;5064145;28;20081;-79
2022/01/05 02:10:32;;;;;;;1.00;0.20;;;5.60;99.90;;;;;;5082200;28;20044;-78
2022/01/05 02:12:59;;;;;;;0.60;0.10;;;5.60;99.90;;;;;;5064465;28;20308;-78
2022/01/05 02:15:24;;;;;;;0.55;0.10;;;5.70;99.90;;;;;;5085313;28;20039;-78
2022/01/05 02:18:09;;;;;;;0.50;0.20;;;5.70;99.90;;;;;;5079470;28;20031;-78
2022/01/05 02:20:35;;;;;;;1.33;0.20;;;5.70;99.90;;;;;;5086149;28;20036;-78
2022/01/05 02:23:01;;;;;;;1.10;0.20;;;5.70;99.90;;;;;;5068408;28;20029;-78
2022/01/05 02:25:27;;;;;;;0.40;0.17;;;5.80;99.90;;;;;;5085987;28;20024;-79
2022/01/05 02:27:55;;;;;;;0.35;0.10;;;5.80;99.90;;;;;;5086195;28;20062;-79
2022/01/05 02:30:25;;;;;;;1.70;0.20;;;5.80;99.90;;;;;;5067669;28;20103;-79
2022/01/05 02:32:50;;;;;;;0.70;0.20;;;5.90;99.90;;;;;;5068256;28;20028;-77
2022/01/05 02:35:17;;;;;;;0.43;0.20;;;5.90;99.90;;;;;;5085669;28;20086;-78
2022/01/05 02:37:45;;;;;;;0.45;0.20;;;5.90;99.90;;;;;;5068582;28;20066;-78
2022/01/05 02:40:13;;;;;;;0.75;0.20;;;5.90;99.90;;;;;;5067317;28;20107;-78
2022/01/05 02:42:39;;;;;;;0.28;0.10;;;5.90;99.90;;;;;;5086163;28;20067;-79
2022/01/05 02:45:06;;;;;;;0.40;0.20;;;5.90;99.90;;;;;;5085879;28;20364;-77
2022/01/05 02:47:32;;;;;;;0.30;0.10;;;5.80;99.90;;;;;;5084984;28;20302;-77
2022/01/05 02:49:58;;;;;;;0.47;0.20;;;5.90;99.90;;;;;;5085536;28;20043;-77
2022/01/05 02:52:24;;;;;;;1.45;0.10;;;5.90;99.90;;;;;;5085074;28;20047;-77
2022/01/05 02:54:50;;;;;;;0.40;0.20;;;5.90;99.90;;;;;;5067776;28;20024;-77
2022/01/05 02:57:16;;;;;;;0.70;0.20;;;5.90;99.90;;;;;;5084156;28;20036;-79
2022/01/05 02:59:41;;;;;;;0.60;0.20;;;6.00;99.90;;;;;;5067717;28;20031;-79
2022/01/05 03:02:07;;;;;;;1.80;0.20;;;6.00;99.90;;;;;;5067907;28;20031;-79
2022/01/05 03:04:33;;;;;;;1.38;0.30;;;6.00;99.90;;;;;;5084782;28;20036;-77
2022/01/05 03:06:59;;;;;;;1.20;0.30;;;6.00;99.90;;;;;;5085498;28;20036;-79
2022/01/05 03:09:25;;;;;;;0.52;0.20;;;6.00;99.90;;;;;;5084134;28;20040;-78
2022/01/05 03:11:51;;;;;;;0.88;0.30;;;6.00;99.90;;;;;;5067404;28;20341;-77
2022/01/05 03:14:17;;;;;;;0.20;0.10;;;5.90;99.90;;;;;;5066921;28;20025;-79
2022/01/05 03:16:43;;;;;;;0.80;0.20;;;5.80;99.90;;;;;;5084053;28;20239;-79
2022/01/05 03:19:09;;;;;;;0.85;0.20;;;5.80;99.90;;;;;;5050563;28;20370;-78
2022/01/05 03:21:34;;;;;;;0.22;0.10;;;5.80;99.90;;;;;;5101918;28;20303;-78
2022/01/05 03:24:00;;;;;;;0.43;0.15;;;5.70;99.90;;;;;;5105483;28;20362;-78
2022/01/05 03:26:26;;;;;;;0.70;0.22;;;5.70;99.90;;;;;;5104665;28;20028;-78
2022/01/05 03:28:52;;;;;;;0.50;0.20;;;5.70;99.90;;;;;;5105586;28;20023;-78
2022/01/05 03:31:17;;;;;;;1.17;0.32;;;5.70;99.90;;;;;;5104832;28;20030;-78
2022/01/05 03:33:43;;;;;;;0.60;0.20;;;5.70;99.90;;;;;;5104917;28;20050;-78
2022/01/05 03:36:09;;;;;;;0.80;0.10;;;5.80;99.90;;;;;;5105151;28;20039;-78
2022/01/05 03:38:35;;;;;;;0.50;0.10;;;5.80;99.90;;;;;;5086839;28;20210;-79
2022/01/05 03:41:01;;;;;;;0.35;0.10;;;5.80;99.90;;;;;;5081135;28;20036;-77
2022/01/05 03:43:26;;;;;;;0.63;0.20;;;5.80;99.90;;;;;;5086417;28;20020;-78
2022/01/05 03:45:52;;;;;;;0.20;0.10;;;5.80;99.90;;;;;;5104687;28;20024;-77
2022/01/05 03:48:19;;;;;;;0.35;0.10;;;5.80;99.90;;;;;;5104346;28;20032;-77
2022/01/05 03:50:46;;;;;;;0.73;0.20;;;5.80;99.90;;;;;;5086771;28;20035;-78
2022/01/05 03:53:12;;;;;;;0.30;0.10;;;5.90;99.90;;;;;;5104762;28;20073;-77
2022/01/05 03:55:40;;;;;;;0.28;0.10;;;5.80;99.90;;;;;;5086866;28;20024;-77
2022/01/05 03:58:07;;;;;;;0.30;0.10;;;5.80;99.90;;;;;;5086867;28;20191;-77
2022/01/05 04:00:36;;;;;;;0.40;0.10;;;5.90;99.90;;;;;;5084163;28;20048;-77
2022/01/05 04:03:02;;;;;;;0.65;0.05;;;5.90;99.90;;;;;;5066047;28;20192;-77
2022/01/05 04:05:28;;;;;;;0.30;0.10;;;5.90;99.90;;;;;;5083499;28;20074;-76
2022/01/05 04:07:55;;;;;;;1.27;0.20;;;5.90;99.90;;;;;;5084078;28;20048;-76
2022/01/05 04:10:21;;;;;;;0.40;0.10;;;5.90;99.90;;;;;;5083554;28;20039;-76
2022/01/05 04:12:49;;;;;;;0.55;0.10;;;5.90;99.90;;;;;;5066199;28;20032;-77
2022/01/05 04:15:15;;;;;;;;;;;5.90;99.90;;;;;;5085350;28;20066;-77
2022/01/05 04:17:41;;;;;;;0.10;0.00;;;5.90;99.90;;;;;;5084108;28;19905;-77
2022/01/05 04:20:08;;;;;;;0.60;0.10;;;5.90;99.90;;;;;;5084171;28;20025;-77
2022/01/05 04:22:34;;;;;;;0.40;0.10;;;5.90;99.90;;;;;;5087060;28;20113;-78
2022/01/05 04:24:59;;;;;;;0.57;0.10;;;6.00;99.90;;;;;;5083882;28;20242;-77
2022/01/05 04:27:25;;;;;;;0.25;0.10;;;6.00;99.90;;;;;;5083154;28;20303;-77
2022/01/05 04:29:51;;;;;;;0.50;0.10;;;6.00;99.90;;;;;;5065954;28;20192;-77
2022/01/05 04:32:17;;;;;;;0.40;0.10;;;6.00;99.90;;;;;;5082917;28;20073;-78
2022/01/05 04:34:42;;;;;;;0.10;0.00;;;6.00;99.90;;;;;;5083570;28;20038;-77
2022/01/05 04:37:08;;;;;;;0.10;0.00;;;5.90;99.90;;;;;;5082962;28;20029;-79
2022/01/05 04:39:35;;;;;;;0.28;0.10;;;5.90;99.90;;;;;;5083322;28;20104;-77
2022/01/05 04:42:01;;;;;;;0.43;0.10;;;5.90;99.90;;;;;;5083447;28;20024;-77
2022/01/05 04:44:27;;;;;;;0.20;0.10;;;5.80;99.90;;;;;;5099565;28;20044;-77
2022/01/05 04:46:53;;;;;;;0.40;0.10;;;5.80;99.90;;;;;;5103627;28;20306;-78
2022/01/05 04:49:19;;;;;;;0.20;0.10;;;5.80;99.90;;;;;;5103204;28;20260;-77
2022/01/05 04:51:45;;;;;;;1.90;0.20;;;5.80;99.90;;;;;;5103821;28;20035;-77
2022/01/05 04:54:36;;;;;;;0.93;0.13;;;5.70;99.90;;;;;;5085724;28;20028;-76
2022/01/05 04:57:02;;;;;;;0.52;0.10;;;5.70;99.90;;;;;;5085365;28;20036;-77
2022/01/05 04:59:28;;;;;;;0.55;0.10;;;5.60;99.90;;;;;;5085131;28;20282;-77
2022/01/05 05:01:54;;;;;;;0.73;0.10;;;5.50;99.90;;;;;;5103311;28;20035;-76
2022/01/05 05:04:58;;;;;;;0.40;0.10;;;5.50;99.90;;;;;;5091446;28;20012;-78
2022/01/05 05:07:49;;;;;;;0.98;0.20;;;5.50;99.90;;;;;;5083109;28;20047;-77
2022/01/05 05:10:15;;;;;;;0.82;0.20;;;5.50;99.90;;;;;;5083262;28;20322;-77
2022/01/05 05:12:41;;;;;;;0.68;0.15;;;5.50;99.90;;;;;;5064862;28;20032;-77
2022/01/05 05:15:07;;;;;;;0.95;0.22;;;5.40;99.90;;;;;;5065282;28;20044;-77
2022/01/05 05:17:32;;;;;;;0.50;0.20;;;5.40;99.90;;;;;;5098459;28;20032;-78
2022/01/05 05:19:58;;;;;;;0.70;0.17;;;5.40;99.90;;;;;;5082740;28;20028;-78
2022/01/05 05:22:24;;;;;;;0.55;0.25;;;5.40;99.90;;;;;;5064698;28;20059;-78
2022/01/05 05:24:50;;;;;;;0.73;0.30;;;5.40;99.90;;;;;;5089965;28;20020;-79
2022/01/05 05:27:16;;;;;;;0.75;0.30;;;5.50;99.90;;;;;;5103185;28;20020;-77
2022/01/05 05:29:42;;;;;;;1.02;0.40;;;4.60;99.90;;;;;;5067853;28;20105;-76
2022/01/05 05:32:09;;;;;;;1.10;0.40;;;4.00;99.90;;;;;;5102828;28;20039;-78
2022/01/05 05:34:34;;;;;;;1.10;0.50;;;3.60;99.90;;;;;;5102304;28;20050;-78
2022/01/05 05:37:00;;;;;;;0.98;0.50;;;3.40;99.90;;;;;;5102894;28;20214;-77
2022/01/05 05:39:26;;;;;;;1.67;0.70;;;3.10;99.90;;;;;;5102325;28;20036;-78
2022/01/05 05:41:52;;;;;;;1.83;0.90;;;3.00;99.90;;;;;;5102874;28;20192;-79
2022/01/05 05:44:18;;;;;;;2.53;0.90;;;2.90;99.90;;;;;;5083268;28;20088;-79
2022/01/05 05:47:09;;;;;;;2.50;1.00;;;2.90;99.90;;;;;;5082430;28;20047;-79
2022/01/05 05:49:35;;;;;;;3.15;1.13;;;2.90;99.90;;;;;;5082076;28;20017;-79
2022/01/05 05:52:01;;;;;;;1.60;0.90;;;2.80;99.90;;;;;;5082380;28;20048;-79
2022/01/05 05:54:27;;;;;;;2.63;1.00;;;2.70;99.90;;;;;;5082115;28;20016;-79
2022/01/05 05:56:52;;;;;;;1.17;0.70;;;2.70;99.90;;;;;;5082283;28;20031;-79
2022/01/05 05:59:18;;;;;;;2.47;1.00;;;2.70;99.90;;;;;;5082387;28;20020;-79
2022/01/05 06:01:44;;;;;;;3.50;1.10;;;2.60;99.90;;;;;;5081980;28;20023;-79
2022/01/05 06:04:10;;;;;;;1.60;0.80;;;2.60;99.90;;;;;;5084498;28;20134;-78
2022/01/05 06:06:36;;;;;;;1.50;0.93;;;2.60;99.90;;;;;;5090595;28;20066;-79
2022/01/05 06:09:02;;;;;;;2.13;1.25;;;2.70;99.90;;;;;;5082108;28;20033;-79
2022/01/05 06:11:28;;;;;;;2.58;1.23;;;2.60;99.90;;;;;;5099580;28;20043;-78
2022/01/05 06:13:54;;;;;;;3.53;1.17;;;2.60;99.90;;;;;;5102335;28;20314;-78
2022/01/05 06:16:21;;;;;;;1.80;0.90;;;2.70;99.90;;;;;;5084198;28;20081;-78
2022/01/05 06:18:47;;;;;;;1.85;1.17;;;2.70;99.90;;;;;;5076222;28;20051;-78
2022/01/05 06:21:13;;;;;;;2.63;1.08;;;2.70;99.90;;;;;;5064502;28;20111;-78
2022/01/05 06:23:39;;;;;;;2.80;1.00;;;2.70;99.90;;;;;;5081829;28;20274;-78
2022/01/05 06:26:05;;;;;;;2.10;1.10;;;2.80;99.90;;;;;;5080736;28;20025;-78
2022/01/05 06:28:31;;;;;;;3.88;1.17;;;2.80;99.90;;;;;;5062628;28;20234;-78
2022/01/05 06:30:57;;;;;;;2.58;1.35;;;2.80;99.90;;;;;;5043623;28;20347;-78
2022/01/05 06:33:23;;;;;;;2.65;1.30;;;2.80;99.90;;;;;;5061876;28;20102;-77
2022/01/05 06:35:48;;;;;;;2.08;1.27;;;2.80;99.90;;;;;;5069993;28;20249;-78
2022/01/05 06:38:26;;;;;;;3.53;1.40;;;2.90;99.90;;;;;;5082188;28;20188;-79
2022/01/05 06:40:52;;;;;;;2.45;1.17;;;2.80;99.90;;;;;;5081999;28;20036;-78
2022/01/05 06:43:17;;;;;;;2.92;1.20;;;2.90;99.90;;;;;;5063984;28;20020;-78
2022/01/05 06:45:43;;;;;;;2.92;1.13;;;3.00;99.90;;;;;;5080751;28;20053;-78
2022/01/05 06:48:09;;;;;;;2.05;1.00;;;3.00;99.90;;;;;;5076304;28;20040;-78
2022/01/05 06:50:35;;;;;;;2.90;1.30;;;3.10;99.90;;;;;;5081428;28;20171;-79
2022/01/05 06:53:02;;;;;;;2.53;1.10;;;3.10;99.90;;;;;;5081922;28;20016;-78
2022/01/05 06:55:27;;;;;;;3.15;1.00;;;3.10;99.90;;;;;;5081150;28;20032;-78
2022/01/05 06:57:53;;;;;;;2.35;1.00;;;3.00;99.90;;;;;;5082067;28;20095;-78
2022/01/05 07:00:22;;;;;;;2.00;0.85;;;3.00;99.90;;;;;;5080769;28;20082;-78
2022/01/05 07:02:48;;;;;;;2.47;0.90;;;3.00;99.90;;;;;;5064157;28;20036;-77
2022/01/05 07:05:14;;;;;;;3.50;0.90;;;2.90;99.90;;;;;;5064515;28;20091;-78
2022/01/05 07:07:39;;;;;;;2.78;0.95;;;2.80;99.90;;;;;;5065575;28;20299;-78
2022/01/05 07:10:07;;;;;;;2.28;1.00;;;2.70;99.90;;;;;;5105476;28;20206;-78
2022/01/05 07:12:34;;;;;;;2.00;0.93;;;2.70;99.90;;;;;;5087059;28;20376;-78
2022/01/05 07:15:00;;;;;;;3.17;1.08;;;2.70;99.90;;;;;;5105453;28;20023;-78
2022/01/05 07:17:26;;;;;;;3.53;1.20;;;2.70;99.90;;;;;;5104459;28;20323;-79
2022/01/05 07:19:51;;;;;;;3.35;1.10;;;2.70;99.90;;;;;;5105244;28;20034;-78
2022/01/05 07:22:17;;;;;;;2.70;1.35;;;2.70;99.90;;;;;;5087388;28;20024;-78
2022/01/05 07:24:44;;;;;;;2.58;1.20;;;2.70;99.90;;;;;;5104724;28;20062;-78
2022/01/05 07:27:09;;;;;;;2.88;1.33;;;2.70;99.90;;;;;;5070787;28;20094;-78
2022/01/05 07:29:35;;;;;;;3.95;1.50;;;2.80;99.90;;;;;;5098906;28;20327;-78
2022/01/05 07:32:01;;;;;;;2.70;1.10;;;2.80;99.90;;;;;;5104949;28;20269;-78
2022/01/05 07:34:27;;;;;;;2.70;1.10;;;2.80;99.90;;;;;;5086610;28;20028;-79
2022/01/05 07:36:52;;;;;;;3.53;1.25;;;2.90;99.90;;;;;;5105468;28;20096;-78
2022/01/05 07:39:19;;;;;;;2.75;1.10;;;3.00;99.90;;;;;;5105276;28;20031;-77
2022/01/05 07:41:45;;;;;;;3.97;1.17;;;3.00;99.90;;;;;;5086668;28;20107;-78
2022/01/05 07:44:10;;;;;;;3.63;1.25;;;3.00;99.90;;;;;;5103922;28;20024;-78
2022/01/05 07:46:36;;;;;;;4.43;0.98;;;3.10;99.90;;;;;;5086197;28;20314;-78
2022/01/05 07:49:03;;;;;;;3.85;1.00;;;3.00;99.90;;;;;;5103456;28;20031;-78
2022/01/05 07:51:29;;;;;;;3.53;1.10;;;3.00;99.90;;;;;;5084837;28;20024;-79
2022/01/05 07:53:55;;;;;;;3.08;1.15;;;3.10;99.90;;;;;;5066899;28;20039;-78
2022/01/05 07:56:21;;;;;;;3.30;1.00;;;3.00;99.90;;;;;;5084815;28;20032;-79
2022/01/05 07:58:48;;;;;;;4.30;1.50;;;2.90;99.90;;;;;;5084073;28;20293;-79
2022/01/05 08:01:15;;;;;;;3.38;1.10;;;3.00;99.90;;;;;;5070987;28;20310;-79
2022/01/05 08:03:47;;;;;;;5.78;1.30;;;2.90;99.90;;;;;;5079513;28;20028;-79
2022/01/05 08:06:13;;;;;;;5.22;1.30;;;2.80;99.90;;;;;;5085199;28;20024;-79
2022/01/05 08:08:39;;;;;;;4.93;1.80;;;2.80;99.90;;;;;;5083584;28;20044;-79
2022/01/05 08:11:05;;;;;;;4.32;1.55;;;2.80;99.90;;;;;;5100918;28;20046;-78
2022/01/05 08:13:31;;;;;;;4.32;1.40;;;2.80;99.90;;;;;;5086248;28;20055;-79
2022/01/05 08:15:57;;;;;;;3.50;1.63;;;2.70;99.90;;;;;;5086092;28;20036;-79
2022/01/05 08:18:23;;;;;;;4.75;1.70;;;2.70;99.90;;;;;;5104350;28;20337;-78
2022/01/05 08:20:49;;;;;;;7.13;1.83;;;2.80;99.90;;;;;;5103852;28;20192;-78
2022/01/05 08:23:23;;;;;;;4.38;1.80;;;2.80;99.90;;;;;;5104584;28;20029;-78
2022/01/05 08:25:49;;;;;;;6.00;1.90;;;2.80;99.90;;;;;;5103728;28;20303;-79
2022/01/05 08:28:16;;;;;;;7.90;2.50;;;2.80;99.90;;;;;;5087046;28;20028;-79
2022/01/05 08:30:44;;;;;;;5.60;1.58;;;2.80;99.90;;;;;;5084907;28;20285;-79
2022/01/05 08:33:20;;;;;;;3.90;1.90;;;2.90;99.90;;;;;;5104304;28;20016;-78
2022/01/05 08:35:46;;;;;;;6.25;1.90;;;2.90;99.90;;;;;;5103157;28;20031;-78
2022/01/05 08:38:15;;;;;;;4.97;2.00;;;2.80;99.90;;;;;;5086178;28;20055;-77
2022/01/05 08:40:41;;;;;;;5.88;1.83;;;2.80;99.90;;;;;;5085700;28;20043;-78
2022/01/05 08:43:12;;;;;;;3.92;1.92;;;2.70;99.90;;;;;;5103863;28;20091;-79
2022/01/05 08:45:40;;;;;;;6.40;1.77;;;2.70;99.90;;;;;;5084482;28;20226;-78
2022/01/05 08:48:06;;;;;;;3.75;1.52;;;2.70;99.90;;;;;;5103819;28;20040;-78
2022/01/05 08:50:34;;;;;;;5.15;1.88;;;2.70;99.90;;;;;;5103193;28;20039;-79
2022/01/05 08:53:00;;;;;;;4.45;1.58;;;2.60;99.90;;;;;;5103719;28;20020;-79
2022/01/05 08:55:29;;;;;;;6.10;1.88;;;2.60;99.90;;;;;;5098308;28;20024;-79
2022/01/05 08:57:56;;;;;;;5.35;1.90;;;2.60;99.90;;;;;;5082812;28;20055;-79
2022/01/05 09:00:22;;;;;;;8.90;1.60;;;2.60;99.90;;;;;;5065208;28;20024;-78
2022/01/05 09:02:49;;;;;;;9.32;1.80;;;2.60;99.90;;;;;;5065156;28;20074;-77
2022/01/05 09:05:15;;;;;;;3.78;1.33;;;2.70;99.90;;;;;;5065049;28;20021;-78
2022/01/05 09:07:42;;;;;;;5.93;1.83;;;2.80;99.90;;;;;;5082285;28;20099;-77
2022/01/05 09:10:08;;;;;;;4.35;1.48;;;3.00;99.90;;;;;;5075014;28;20043;-77
2022/01/05 09:12:34;;;;;;;3.42;1.50;;;3.10;99.90;;;;;;5103050;28;20145;-79
2022/01/05 09:15:00;;;;;;;8.20;1.65;;;3.30;99.90;;;;;;5103445;28;20305;-79
2022/01/05 09:17:27;;;;;;;5.85;1.30;;;3.30;99.90;;;;;;5102730;28;20032;-76
2022/01/05 09:19:53;;;;;;;4.55;1.63;;;3.30;99.90;;;;;;5084834;28;20028;-77
2022/01/05 09:22:20;;;;;;;4.90;1.30;;;3.30;99.90;;;;;;5082935;28;20074;-79
2022/01/05 09:24:46;;;;;;;5.80;1.70;;;3.40;99.90;;;;;;5081935;28;20021;-78
2022/01/05 09:27:11;;;;;;;5.72;1.60;;;3.30;99.90;;;;;;5082501;28;20303;-79
2022/01/05 09:29:39;;;;;;;7.43;2.28;;;3.40;99.90;;;;;;5082213;28;20294;-77
2022/01/05 09:32:08;;;;;;;5.88;2.13;;;3.50;99.90;;;;;;5064173;28;20097;-78
2022/01/05 09:34:35;;;;;;;4.82;1.48;;;3.70;99.90;;;;;;5082017;28;20036;-78
2022/01/05 09:37:08;;;;;;;8.57;2.17;;;3.90;99.90;;;;;;5065074;28;20318;-80
2022/01/05 09:42:18;;;;;;;4.53;1.35;;;4.00;99.90;;;;;;5090367;28;20044;-79
2022/01/05 09:44:48;;;;;;;4.60;1.33;;;4.00;99.90;;;;;;5084475;28;20016;-80
2022/01/05 09:47:13;;;;;;;5.30;1.38;;;3.90;99.90;;;;;;5102364;28;20031;-80
2022/01/05 09:49:48;;;;;;;4.18;1.50;;;4.10;99.90;;;;;;5102028;28;20254;-79
2022/01/05 09:52:14;;;;;;;8.55;1.80;;;3.80;99.90;;;;;;5084966;28;20095;-80
2022/01/05 09:54:43;;;;;;;5.28;1.50;;;3.70;99.90;;;;;;5102389;28;20039;-80
2022/01/05 09:57:10;;;;;;;7.35;1.63;;;3.70;99.90;;;;;;5084574;28;20028;-79
2022/01/05 09:59:37;;;;;;;6.65;1.73;;;3.50;99.90;;;;;;5084181;28;20037;-80
2022/01/05 10:02:05;;;;;;;7.70;1.65;;;3.50;99.90;;;;;;5079240;28;20266;-79
2022/01/05 10:04:31;;;;;;;5.77;1.80;;;3.60;99.90;;;;;;5102205;28;20016;-80
2022/01/05 10:06:57;;;;;;;7.40;2.00;;;3.60;99.90;;;;;;5067344;28;20024;-79
2022/01/05 10:09:23;;;;;;;6.38;1.90;;;3.40;99.90;;;;;;5067551;28;20063;-79
2022/01/05 10:11:49;;;;;;;6.97;1.38;;;3.40;99.90;;;;;;5083962;28;20203;-81
2022/01/05 10:14:16;;;;;;;6.15;1.70;;;3.50;99.90;;;;;;5102374;28;20027;-79
2022/01/05 10:16:58;;;;;;;6.45;2.03;;;3.60;99.90;;;;;;5083317;28;20048;-80
2022/01/05 10:19:25;;;;;;;7.85;1.77;;;3.60;99.90;;;;;;5102566;28;20036;-81
2022/01/05 10:21:51;;;;;;;4.65;1.30;;;3.50;99.90;;;;;;5101866;28;20028;-80
2022/01/05 10:24:17;;;;;;;6.05;1.52;;;3.50;99.90;;;;;;5097552;28;20024;-79
2022/01/05 10:26:43;;;;;;;7.78;1.27;;;3.40;99.90;;;;;;5083542;28;20050;-78
2022/01/05 10:29:18;;;;;;;6.93;1.35;;;3.30;99.90;;;;;;5067458;28;20028;-78
2022/01/05 10:31:51;;;;;;;8.77;1.90;;;3.30;99.90;;;;;;5101321;28;20044;-78
2022/01/05 10:34:20;;;;;;;6.45;1.95;;;3.30;99.90;;;;;;5084474;28;20325;-78
2022/01/05 10:36:57;;;;;;;5.63;1.55;;;3.40;99.90;;;;;;5105857;28;20161;-77
2022/01/05 10:39:39;;;;;;;5.57;1.90;;;3.50;99.90;;;;;;5106385;28;20028;-78
2022/01/05 10:42:05;;;;;;;7.47;1.55;;;3.50;99.90;;;;;;5088341;28;20032;-78
2022/01/05 10:44:31;;;;;;;4.45;1.20;;;3.60;99.90;;;;;;5079560;28;20039;-76
2022/01/05 10:46:58;;;;;;;9.25;1.67;;;3.90;99.90;;;;;;5085888;28;20274;-76
2022/01/05 10:49:27;;;;;;;9.18;1.45;;;4.10;99.90;;;;;;5105645;28;20046;-77
2022/01/05 10:51:54;;;;;;;6.45;1.45;;;4.50;99.90;;;;;;5105041;28;20043;-77
2022/01/05 10:54:23;;;;;;;10.10;1.50;;;5.00;99.90;;;;;;5087899;28;20030;-77
2022/01/05 10:56:50;;;;;;;9.30;1.30;;;5.50;99.90;;;;;;5105578;28;20058;-77
2022/01/05 10:59:34;;;;;;;8.52;2.20;;;5.50;99.90;;;;;;5105934;28;20016;-77
2022/01/05 11:02:18;;;;;;;8.52;1.27;;;5.90;99.90;;;;;;5083287;28;20041;-77
2022/01/05 11:04:44;;;;;;;8.70;1.38;;;6.40;99.90;;;;;;5082830;28;20335;-78
2022/01/05 11:07:24;;;;;;;6.97;1.48;;;6.50;99.90;;;;;;5085411;28;20036;-77
2022/01/05 11:10:01;;;;;;;6.10;1.30;;;5.70;99.90;;;;;;5083561;28;20040;-77
2022/01/05 11:12:32;;;;;;;9.65;1.70;;;5.20;99.90;;;;;;5084398;28;20025;-79
2022/01/05 11:15:24;;;;;;;7.20;1.45;;;5.30;99.90;;;;;;5084796;28;20056;-77
2022/01/05 11:18:12;;;;;;;5.65;1.30;;;5.10;99.90;;;;;;5101096;28;20075;-79
2022/01/05 11:21:03;;;;;;;5.55;1.33;;;4.50;99.90;;;;;;5105374;28;20028;-78
2022/01/05 11:23:31;;;;;;;5.80;1.25;;;4.30;99.90;;;;;;5058967;28;20032;-77
2022/01/05 11:25:59;;;;;;;7.43;1.70;;;4.20;99.90;;;;;;5065433;28;20032;-78
2022/01/05 11:28:26;;;;;;;4.82;1.70;;;5.00;99.90;;;;;;5047254;28;20043;-78
2022/01/05 11:30:53;;;;;;;7.75;1.70;;;5.10;99.90;;;;;;5049526;28;20067;-79
2022/01/05 11:33:20;;;;;;;6.07;2.33;;;5.80;99.90;;;;;;5064101;28;20212;-79
2022/01/05 11:35:46;;;;;;;4.70;1.33;;;7.00;99.90;;;;;;5063396;28;20032;-80
2022/01/05 11:38:13;;;;;;;7.28;1.83;;;8.00;99.50;;;;;;5064507;28;20036;-77
2022/01/05 11:40:51;;;;;;;7.97;1.92;;;8.80;98.20;;;;;;5064640;28;20045;-79
2022/01/05 11:43:24;;;;;;;5.47;1.23;;;8.90;97.20;;;;;;5065011;28;20060;-80
2022/01/05 11:45:52;;;;;;;5.45;1.38;;;9.00;96.40;;;;;;5064401;28;20144;-77
2022/01/05 11:48:40;;;;;;;5.18;1.60;;;8.60;97.00;;;;;;5064855;28;20052;-77
2022/01/05 11:51:06;;;;;;;5.10;1.42;;;7.80;98.40;;;;;;5064269;28;20044;-77
2022/01/05 11:53:41;;;;;;;7.00;1.50;;;7.20;98.70;;;;;;5063346;28;20033;-77
2022/01/05 11:56:10;;;;;;;5.53;1.27;;;7.70;99.70;;;;;;5064651;28;20135;-79
2022/01/05 11:58:47;;;;;;;;;;;8.10;98.30;;;;;;5064856;28;20024;-79
2022/01/05 12:01:13;;;;;;;8.57;1.45;;;8.40;99.30;;;;;;5063089;28;19913;-78
2022/01/05 12:03:57;;;;;;;5.20;1.48;;;8.90;98.00;;;;;;5064149;28;20112;-78
2022/01/05 12:06:30;;;;;;;5.22;1.30;;;9.30;97.10;;;;;;5066815;28;20025;-78
2022/01/05 12:09:23;;;;;;;6.30;1.73;;;8.70;96.40;;;;;;5078770;28;20051;-78
2022/01/05 12:11:50;;;;;;;5.22;1.98;;;9.30;96.40;;;;;;5039336;28;20036;-79
2022/01/05 12:14:22;;;;;;;7.70;1.90;;;9.40;96.00;;;;;;5083553;28;20035;-79
2022/01/05 12:17:03;;;;;;;7.45;1.45;;;9.90;96.00;;;;;;5080831;28;20044;-78
2022/01/05 12:19:28;;;;;;;7.78;1.75;;;9.40;96.10;;;;;;5083362;28;20024;-79
2022/01/05 12:21:57;;;;;;;10.48;1.90;;;9.10;96.30;;;;;;5082692;28;20047;-78
2022/01/05 12:24:42;;;;;;;;;;;8.20;97.20;;;;;;5083652;28;20017;-79
2022/01/05 12:27:23;;;;;;;5.32;1.50;;;8.30;97.00;;;;;;5065866;28;19904;-78
2022/01/05 12:29:50;;;;;;;3.88;1.10;;;7.60;98.00;;;;;;5065754;28;20043;-79
2022/01/05 12:32:34;;;;;;;7.93;1.40;;;6.60;98.50;;;;;;5048759;28;20044;-78
2022/01/05 12:35:03;;;;;;;5.35;1.20;;;6.40;99.40;;;;;;5083239;28;20331;-77
2022/01/05 12:38:16;;;;;;;5.72;1.33;;;6.90;98.80;;;;;;5083467;28;20035;-77
2022/01/05 12:40:46;;;;;;;6.65;1.38;;;6.60;99.20;;;;;;5044514;28;20041;-78
2022/01/05 12:43:16;;;;;;;5.80;1.63;;;6.30;99.80;;;;;;5083382;28;20051;-77
2022/01/05 12:45:45;;;;;;;7.22;1.50;;;6.60;99.30;;;;;;5064754;28;20037;-78
2022/01/05 12:48:33;;;;;;;7.28;1.42;;;7.50;98.30;;;;;;5065302;28;20024;-78
2022/01/05 12:51:17;;;;;;;4.15;1.10;;;6.90;97.90;;;;;;5064888;28;20036;-78
2022/01/05 12:54:00;;;;;;;5.93;1.60;;;6.50;98.40;;;;;;5083294;28;20047;-77
2022/01/05 12:56:34;;;;;;;7.55;1.38;;;6.10;98.70;;;;;;5083195;28;20040;-78
2022/01/05 12:59:03;;;;;;;5.32;1.33;;;5.50;99.80;;;;;;5082276;28;20024;-79
2022/01/05 13:01:32;;;;;;;5.60;1.55;;;5.10;99.90;;;;;;5064977;28;20037;-78
2022/01/05 13:04:10;;;;;;;6.32;1.45;;;5.40;99.90;;;;;;5082322;28;20028;-78
2022/01/05 13:06:38;;;;;;;5.63;1.60;;;6.00;99.50;;;;;;5064877;28;20036;-77